Hauptseite
METAR-TAF:

METAR-TAF

Flughäfen :

Flughafen Phetchabun

Phetchabun, Thailand

Breite: 16-40-33N, Länge: 101-11-42E, Höhe: 137 m

Beobachtung

Neuester Wetterbericht von vor 59 Minuten, um 23:00 UTC
Wind 2 kt aus Nord
Temperatur 20°C
Luftfeuchtigkeit 83%
Luftdruck 1016 hPa
Sichtweite: 8000 m
Leicht bewölkt in der Höhe von 3500 ft
Durchbrochene Bewölkung in der Höhe von 10000 ft

METAR: VTPB 222300Z 35002KT 8000 FEW035 BKN100 20/17 Q1016 NOSIG

Zeit: 06:59 (23:59 UTC)

Prognose

Neuester Wetterbericht von vor 59 Minuten, um 23:00 UTC
Gültige Prognose vom 23 um 00 UTC bis 23 um 24 UTC
Wind 5 kt aus Nord
Sichtweite 10 km oder mehr
Leicht bewölkt in der Höhe von 3000 ft

TAF: VTPB 222300Z 2300/2324 36005KT 9999 FEW030

Wetterbeobachtungen und Prognosen von mehr als 4000 Flughäfen (METAR und TAF Bericht).

Die verfügbaren Stationen werden durch gelbe und rote Markierungen auf der Karte dargestellt.

Führen Sie die Maus auf sie, um den Namen der Station zu sehen.

Darauf klicken, um die Beobachtung von Wetterbeobachtungen und Prognosen zu sehen.

Um die Karte zu ändern : klicken Sie auf den grünen Tasten mit einem schwarzen Kreuz Zum Vergrößern, auf den grünen Button mit einem Gedankenstrich zu verkleinern, oder auf die grünen Pfeile für benachbarte Karten.


METAR-TAF: